createdAt,value
2018-02-16T00:01:03.895Z,48.30
2018-02-16T00:03:31.446Z,44.93
2018-02-16T00:05:58.975Z,58.70
2018-02-16T00:08:26.547Z,45.03
2018-02-16T00:10:54.095Z,48.57
2018-02-16T00:13:21.677Z,47.00
2018-02-16T00:15:49.326Z,47.13
2018-02-16T00:18:16.894Z,50.80
2018-02-16T00:20:46.035Z,47.87
2018-02-16T00:23:13.595Z,45.33
2018-02-16T00:25:41.900Z,50.77
2018-02-16T00:28:09.518Z,51.03
2018-02-16T00:30:37.094Z,46.23
2018-02-16T00:33:05.400Z,44.30
2018-02-16T00:35:32.968Z,52.10
2018-02-16T00:38:00.576Z,45.80
2018-02-16T00:40:28.211Z,39.43
2018-02-16T00:42:55.783Z,43.50
2018-02-16T00:45:24.122Z,40.30
2018-02-16T00:47:52.610Z,41.67
2018-02-16T00:50:20.191Z,37.20
2018-02-16T00:52:47.764Z,45.10
2018-02-16T00:55:15.320Z,46.53
2018-02-16T00:57:42.863Z,35.30
2018-02-16T01:00:10.484Z,38.30
2018-02-16T01:02:38.046Z,35.97
2018-02-16T01:05:06.386Z,46.23
2018-02-16T01:07:34.890Z,42.13
2018-02-16T01:10:02.483Z,40.93
2018-02-16T01:12:30.020Z,35.37
2018-02-16T01:14:57.582Z,37.50
2018-02-16T01:17:25.137Z,47.60
2018-02-16T01:19:53.452Z,37.73
2018-02-16T01:22:21.000Z,34.23
2018-02-16T01:24:49.293Z,37.90
2018-02-16T01:27:17.525Z,37.70
2018-02-16T01:29:45.074Z,37.07
2018-02-16T01:32:14.238Z,32.90
2018-02-16T01:34:42.402Z,35.23
2018-02-16T01:37:09.946Z,33.67
2018-02-16T01:39:37.525Z,34.20
2018-02-16T01:42:05.079Z,32.27
2018-02-16T01:44:32.652Z,41.03
2018-02-16T01:47:00.234Z,38.70
2018-02-16T01:49:29.382Z,34.90
2018-02-16T01:51:56.982Z,33.87
2018-02-16T01:54:24.522Z,32.20
2018-02-16T01:56:52.850Z,34.27
2018-02-16T01:59:21.254Z,34.23
2018-02-16T02:01:48.825Z,35.03
2018-02-16T02:04:16.963Z,31.43
2018-02-16T02:06:44.506Z,37.27
2018-02-16T02:09:12.826Z,30.23
2018-02-16T02:11:40.371Z,34.63
2018-02-16T02:14:08.013Z,27.37
2018-02-16T02:16:35.527Z,34.87
2018-02-16T02:19:03.094Z,29.37
2018-02-16T02:21:30.760Z,36.70
2018-02-16T02:23:58.282Z,34.90
2018-02-16T02:26:25.891Z,33.73
2018-02-16T02:28:53.491Z,31.83
2018-02-16T02:31:21.037Z,30.53
2018-02-16T02:33:48.656Z,35.27
2018-02-16T02:36:16.193Z,34.10
2018-02-16T02:38:43.711Z,36.23
2018-02-16T02:41:12.027Z,34.93
2018-02-16T02:43:39.544Z,38.43
2018-02-16T02:46:07.200Z,34.83
2018-02-16T02:48:35.503Z,35.10
2018-02-16T02:51:03.066Z,35.17
2018-02-16T02:53:30.596Z,39.47
2018-02-16T02:55:58.123Z,31.63
2018-02-16T02:58:26.037Z,37.37
2018-02-16T03:00:54.333Z,36.70
2018-02-16T03:03:21.890Z,30.47
2018-02-16T03:05:49.456Z,38.67
2018-02-16T03:08:17.143Z,35.60
2018-02-16T03:10:44.712Z,33.17
2018-02-16T03:13:12.274Z,34.43
2018-02-16T03:15:40.431Z,32.83
2018-02-16T03:18:07.981Z,35.97
2018-02-16T03:20:35.536Z,35.87
2018-02-16T03:23:03.140Z,32.87
2018-02-16T03:25:30.670Z,34.03
2018-02-16T03:27:58.247Z,37.07
2018-02-16T03:30:25.961Z,40.03
2018-02-16T03:32:53.486Z,35.17
2018-02-16T03:35:21.989Z,32.23
2018-02-16T03:37:49.571Z,35.80
2018-02-16T03:40:17.932Z,34.43
2018-02-16T03:42:46.271Z,39.33
2018-02-16T03:45:14.649Z,40.23
2018-02-16T03:47:42.169Z,36.50
2018-02-16T03:50:09.808Z,37.40
2018-02-16T03:52:37.554Z,37.10
2018-02-16T03:55:05.785Z,33.73
2018-02-16T03:57:33.660Z,34.63
2018-02-16T04:00:01.199Z,36.33
2018-02-16T04:02:28.747Z,31.90
2018-02-16T04:04:57.090Z,35.20
2018-02-16T04:07:24.689Z,42.17
2018-02-16T04:09:52.207Z,40.73
2018-02-16T04:12:19.835Z,40.57
2018-02-16T04:14:47.464Z,39.90
2018-02-16T04:17:15.046Z,41.23
2018-02-16T04:19:42.583Z,36.83
2018-02-16T04:22:10.150Z,43.43
2018-02-16T04:24:38.430Z,38.10
2018-02-16T04:27:06.790Z,40.00
2018-02-16T04:29:34.378Z,39.37
2018-02-16T04:32:01.928Z,42.73
2018-02-16T04:34:29.512Z,45.80
2018-02-16T04:36:57.032Z,35.87
2018-02-16T04:39:24.760Z,47.50
2018-02-16T04:41:52.290Z,47.13
2018-02-16T04:44:19.827Z,39.90
2018-02-16T04:46:47.426Z,39.17
2018-02-16T04:49:14.950Z,43.43
2018-02-16T04:51:43.243Z,45.73
2018-02-16T04:54:10.790Z,42.10
2018-02-16T04:56:38.367Z,41.90
2018-02-16T04:59:05.924Z,41.10
2018-02-16T05:01:33.463Z,45.03
2018-02-16T05:04:01.064Z,44.33
2018-02-16T05:06:28.672Z,42.03
2018-02-16T05:08:56.230Z,43.20
2018-02-16T05:11:24.554Z,42.10
2018-02-16T05:13:52.099Z,47.63
2018-02-16T05:16:19.677Z,43.63
2018-02-16T05:18:47.218Z,40.97
2018-02-16T05:21:14.788Z,46.57
2018-02-16T05:23:42.375Z,43.10
2018-02-16T05:26:09.912Z,45.90
2018-02-16T05:28:37.461Z,40.93
2018-02-16T05:31:05.048Z,46.47
2018-02-16T05:33:32.594Z,45.37
2018-02-16T05:36:00.128Z,47.73
2018-02-16T05:38:27.721Z,43.03
2018-02-16T05:40:55.316Z,40.60
2018-02-16T05:43:22.871Z,44.77
2018-02-16T05:45:50.446Z,49.33
2018-02-16T05:48:18.764Z,44.87
2018-02-16T05:50:46.323Z,45.40
2018-02-16T05:53:14.140Z,42.07
2018-02-16T05:55:42.574Z,45.90
2018-02-16T05:58:10.171Z,40.40
2018-02-16T06:00:37.704Z,47.93
2018-02-16T06:03:05.259Z,48.10
2018-02-16T06:05:33.719Z,54.80
2018-02-16T06:08:01.265Z,56.43
2018-02-16T06:10:29.547Z,52.87
2018-02-16T06:12:57.453Z,53.10
2018-02-16T06:15:24.974Z,56.17
2018-02-16T06:17:52.546Z,60.70
2018-02-16T06:20:20.097Z,51.90
2018-02-16T06:22:47.647Z,55.37
2018-02-16T06:25:16.026Z,65.70
2018-02-16T06:27:44.317Z,56.70
2018-02-16T06:30:11.864Z,53.80
2018-02-16T06:32:39.427Z,59.70
2018-02-16T06:35:07.230Z,53.20
2018-02-16T06:37:35.631Z,52.93
2018-02-16T06:40:03.259Z,55.63
2018-02-16T06:42:30.890Z,46.53
2018-02-16T06:44:58.437Z,56.47
2018-02-16T06:47:25.988Z,50.23
2018-02-16T06:49:53.541Z,54.50
2018-02-16T06:52:21.113Z,59.53
2018-02-16T06:54:49.414Z,58.83
2018-02-16T07:10:12.302Z,54.60
2018-02-16T07:12:39.840Z,58.23
2018-02-16T07:15:08.045Z,52.20
2018-02-16T07:17:35.796Z,56.00
2018-02-16T07:20:03.721Z,57.43
2018-02-16T07:22:31.274Z,54.93
2018-02-16T07:24:58.874Z,52.50
2018-02-16T07:27:26.404Z,61.30
2018-02-16T07:29:53.997Z,56.00
2018-02-16T07:32:21.588Z,57.13
2018-02-16T07:34:49.164Z,62.43
2018-02-16T07:37:16.681Z,75.13
2018-02-16T07:39:44.242Z,62.73
2018-02-16T07:42:12.713Z,59.03
2018-02-16T07:44:40.460Z,58.00
2018-02-16T07:47:08.495Z,59.97
2018-02-16T07:49:36.825Z,60.23
2018-02-16T07:52:05.054Z,54.53
2018-02-16T07:54:33.402Z,59.33
2018-02-16T07:57:01.019Z,61.43
2018-02-16T07:59:28.676Z,58.20
2018-02-16T08:01:58.126Z,55.03
2018-02-16T08:04:26.623Z,60.70
2018-02-16T08:06:54.188Z,62.47
2018-02-16T08:09:22.270Z,60.00
2018-02-16T08:11:50.592Z,57.60
2018-02-16T08:14:18.144Z,61.00
2018-02-16T08:16:45.712Z,63.90
2018-02-16T08:19:13.258Z,63.97
2018-02-16T08:21:41.449Z,57.53
2018-02-16T08:24:09.010Z,67.13
2018-02-16T08:26:36.550Z,65.27
2018-02-16T08:29:04.091Z,62.30
2018-02-16T08:31:32.454Z,68.50
2018-02-16T08:34:01.402Z,61.70
2018-02-16T08:36:28.947Z,58.93
2018-02-16T08:38:57.914Z,70.90
2018-02-16T08:41:26.305Z,74.90
2018-02-16T08:43:54.691Z,69.20
2018-02-16T08:46:22.724Z,72.50
2018-02-16T08:48:51.182Z,62.67
2018-02-16T08:51:18.723Z,61.90
2018-02-16T08:53:46.372Z,67.97
2018-02-16T08:56:13.900Z,60.03
2018-02-16T08:58:42.449Z,57.97
2018-02-16T09:01:10.641Z,65.17
2018-02-16T09:03:40.692Z,64.60
2018-02-16T09:06:08.269Z,66.57
2018-02-16T09:08:37.140Z,61.13
2018-02-16T09:11:05.467Z,61.30
2018-02-16T09:13:33.035Z,63.43
2018-02-16T09:16:01.106Z,67.63
2018-02-16T09:18:28.661Z,64.87
2018-02-16T09:20:56.270Z,59.93
2018-02-16T09:23:24.613Z,64.40
2018-02-16T09:25:52.203Z,63.93
2018-02-16T09:28:19.764Z,56.57
2018-02-16T09:30:47.404Z,89.20
2018-02-16T09:33:15.012Z,68.83
2018-02-16T09:35:43.589Z,62.47
2018-02-16T09:38:13.112Z,64.90
2018-02-16T09:40:40.672Z,69.43
2018-02-16T09:43:08.322Z,68.10
2018-02-16T09:45:35.874Z,64.70
2018-02-16T09:48:04.297Z,60.67
2018-02-16T09:50:31.917Z,68.23
2018-02-16T09:52:59.829Z,68.13
2018-02-16T09:55:29.291Z,61.87
2018-02-16T09:57:56.848Z,65.77
2018-02-16T10:00:24.401Z,64.13
2018-02-16T10:02:52.463Z,68.77
2018-02-16T10:05:20.029Z,93.60
2018-02-16T10:07:48.500Z,68.87
2018-02-16T10:10:16.792Z,72.93
2018-02-16T10:12:45.149Z,71.33
2018-02-16T10:15:13.522Z,71.00
2018-02-16T10:17:41.084Z,62.67
2018-02-16T10:20:09.025Z,68.80
2018-02-16T10:22:36.769Z,61.40
2018-02-16T10:25:04.357Z,68.73
2018-02-16T10:27:32.368Z,70.20
2018-02-16T10:30:00.564Z,72.60
2018-02-16T10:32:28.144Z,77.20
2018-02-16T10:34:55.709Z,71.20
2018-02-16T10:37:24.483Z,71.43
2018-02-16T10:39:52.622Z,72.73
2018-02-16T10:42:21.847Z,67.77
2018-02-16T10:44:50.160Z,71.67
2018-02-16T10:47:18.177Z,66.13
2018-02-16T10:49:46.183Z,68.80
2018-02-16T10:52:14.567Z,83.63
2018-02-16T10:54:42.151Z,75.67
2018-02-16T10:57:09.711Z,79.33
2018-02-16T10:59:37.343Z,73.00
2018-02-16T11:02:12.062Z,74.47
2018-02-16T11:04:45.311Z,73.60
2018-02-16T11:07:18.594Z,75.20
2018-02-16T11:09:47.212Z,74.07
2018-02-16T11:12:15.195Z,81.93
2018-02-16T11:14:43.695Z,70.50
2018-02-16T11:17:12.283Z,80.00
2018-02-16T11:19:39.867Z,76.17
2018-02-16T11:22:07.433Z,71.30
2018-02-16T11:24:34.969Z,77.17
2018-02-16T11:27:02.520Z,76.63
2018-02-16T11:29:30.112Z,68.90
2018-02-16T11:31:57.724Z,71.17
2018-02-16T11:34:26.316Z,71.37
2018-02-16T11:36:53.925Z,64.27
2018-02-16T11:39:22.886Z,66.57
2018-02-16T11:41:50.455Z,75.30
2018-02-16T11:44:18.330Z,65.20
2018-02-16T11:46:46.513Z,70.30
2018-02-16T11:49:14.035Z,81.47
2018-02-16T11:51:42.078Z,69.03
2018-02-16T11:54:09.665Z,74.53
2018-02-16T11:56:38.756Z,78.03
2018-02-16T11:59:07.336Z,70.93
2018-02-16T12:01:35.907Z,79.00
2018-02-16T12:04:03.445Z,67.53
2018-02-16T12:06:31.761Z,64.93
2018-02-16T12:08:59.469Z,72.93
2018-02-16T12:11:27.624Z,71.17
2018-02-16T12:13:55.200Z,68.40
2018-02-16T12:16:22.761Z,67.50
2018-02-16T12:18:50.355Z,72.20
2018-02-16T12:21:17.927Z,64.07
2018-02-16T12:23:45.479Z,65.40
2018-02-16T12:26:13.082Z,79.83
2018-02-16T12:28:40.624Z,63.90
2018-02-16T12:31:08.151Z,66.60
2018-02-16T12:33:35.751Z,55.37
2018-02-16T12:36:04.058Z,54.60
2018-02-16T12:38:31.604Z,41.20
2018-02-16T12:40:59.215Z,46.90
2018-02-16T12:43:26.851Z,44.47
2018-02-16T12:45:55.157Z,42.03
2018-02-16T12:48:22.755Z,43.10
2018-02-16T12:50:50.317Z,43.60
2018-02-16T12:53:17.879Z,61.33
2018-02-16T12:55:46.423Z,44.37
2018-02-16T12:58:13.977Z,46.27
2018-02-16T13:00:43.889Z,42.97
2018-02-16T13:03:12.206Z,41.07
2018-02-16T13:05:40.185Z,36.20
2018-02-16T13:08:07.735Z,34.80
2018-02-16T13:10:36.681Z,31.83
2018-02-16T13:13:05.813Z,29.70
2018-02-16T13:15:33.353Z,27.70
2018-02-16T13:18:02.094Z,32.03
2018-02-16T13:20:30.463Z,34.33
2018-02-16T13:22:59.116Z,30.73
2018-02-16T13:25:26.689Z,29.00
2018-02-16T13:27:54.260Z,28.87
2018-02-16T13:30:22.626Z,31.83
2018-02-16T13:32:50.184Z,35.80
2018-02-16T13:35:17.931Z,33.77
2018-02-16T13:37:45.553Z,32.33
2018-02-16T13:40:14.156Z,33.10
2018-02-16T13:42:42.521Z,30.70
2018-02-16T13:45:10.856Z,35.00
2018-02-16T13:47:38.571Z,37.73
2018-02-16T13:50:06.996Z,31.30
2018-02-16T13:52:34.547Z,31.73
2018-02-16T13:55:02.125Z,28.93
2018-02-16T13:57:31.309Z,26.47
2018-02-16T14:00:01.879Z,33.20
2018-02-16T14:02:30.811Z,26.10
2018-02-16T14:04:59.741Z,28.00
2018-02-16T14:07:27.394Z,39.27
2018-02-16T14:09:54.932Z,26.77
2018-02-16T14:12:23.702Z,25.40
2018-02-16T14:14:52.042Z,27.50
2018-02-16T14:17:20.799Z,28.00
2018-02-16T14:19:48.915Z,27.23
2018-02-16T14:22:19.115Z,25.37
2018-02-16T14:24:46.698Z,29.60
2018-02-16T14:27:14.277Z,22.03
2018-02-16T14:29:42.776Z,24.57
2018-02-16T14:32:11.797Z,27.20
2018-02-16T14:34:39.892Z,28.30
2018-02-16T14:37:07.501Z,24.90
2018-02-16T14:39:35.823Z,29.63
2018-02-16T14:42:04.024Z,34.27
2018-02-16T14:44:32.332Z,29.27
2018-02-16T14:47:01.989Z,26.80
2018-02-16T14:49:30.372Z,23.20
2018-02-16T14:51:57.940Z,23.33
2018-02-16T14:54:27.073Z,24.50
2018-02-16T14:56:55.312Z,27.43
2018-02-16T14:59:22.902Z,27.20
2018-02-16T15:01:52.056Z,44.30
2018-02-16T15:04:20.462Z,31.00
2018-02-16T15:06:48.876Z,30.13
2018-02-16T15:09:16.434Z,27.20
2018-02-16T15:11:45.005Z,25.67
2018-02-16T15:14:12.563Z,24.33
2018-02-16T15:16:40.163Z,20.97
2018-02-16T15:19:07.727Z,20.67
2018-02-16T15:21:35.350Z,19.53
2018-02-16T15:24:02.928Z,17.47
2018-02-16T15:26:30.601Z,19.90
2018-02-16T15:28:58.160Z,19.23
2018-02-16T15:31:25.779Z,21.00
2018-02-16T15:33:54.078Z,23.80
2018-02-16T15:36:22.396Z,19.40
2018-02-16T15:38:49.978Z,22.63
2018-02-16T15:41:17.559Z,23.37
2018-02-16T15:43:45.113Z,22.07
2018-02-16T15:46:13.463Z,22.33
2018-02-16T15:48:41.064Z,20.60
2018-02-16T15:51:09.378Z,20.23
2018-02-16T15:53:36.943Z,22.60
2018-02-16T15:56:04.866Z,23.10
2018-02-16T15:58:33.187Z,48.80
2018-02-16T16:01:00.750Z,32.90
2018-02-16T16:03:28.382Z,32.13
2018-02-16T16:05:55.945Z,40.60
2018-02-16T16:08:23.521Z,27.13
2018-02-16T16:10:51.091Z,26.20
2018-02-16T16:13:18.727Z,31.13
2018-02-16T16:15:46.273Z,26.97
2018-02-16T16:18:13.951Z,16.60
2018-02-16T16:20:42.673Z,19.60
2018-02-16T16:23:10.197Z,22.03
2018-02-16T16:25:39.335Z,28.27
2018-02-16T16:28:07.752Z,20.70
2018-02-16T16:30:35.304Z,23.80
2018-02-16T16:33:03.675Z,21.73
2018-02-16T16:35:31.992Z,19.93
2018-02-16T16:37:59.518Z,21.80
2018-02-16T16:40:27.180Z,28.07
2018-02-16T16:42:54.767Z,29.37
2018-02-16T16:45:22.288Z,27.17
2018-02-16T16:47:49.833Z,22.33
2018-02-16T16:50:17.403Z,21.43
2018-02-16T16:52:44.966Z,27.40
2018-02-16T16:55:12.605Z,26.73
2018-02-16T16:57:40.225Z,28.67
2018-02-16T17:00:08.520Z,26.10
2018-02-16T17:15:31.975Z,23.93
2018-02-16T17:17:59.511Z,32.77
2018-02-16T17:20:27.163Z,38.47
2018-02-16T17:22:55.491Z,44.47
2018-02-16T17:25:23.044Z,49.27
2018-02-16T17:27:50.636Z,56.40
2018-02-16T17:30:18.179Z,55.27
2018-02-16T17:32:45.720Z,62.20
2018-02-16T17:35:13.597Z,64.40
2018-02-16T17:37:41.166Z,74.20
2018-02-16T17:40:09.353Z,81.13
2018-02-16T17:42:36.926Z,69.17
2018-02-16T17:45:04.643Z,68.77
2018-02-16T17:47:32.289Z,71.43
2018-02-16T17:49:59.821Z,72.03
2018-02-16T17:52:28.173Z,75.77
2018-02-16T17:54:55.735Z,71.23
2018-02-16T17:57:23.336Z,77.30
2018-02-16T17:59:50.875Z,75.17
2018-02-16T18:02:18.398Z,71.27
2018-02-16T18:04:45.988Z,79.33
2018-02-16T18:07:14.199Z,77.67
2018-02-16T18:09:41.770Z,77.17
2018-02-16T18:12:09.342Z,75.73
2018-02-16T18:14:36.905Z,77.27
2018-02-16T18:17:04.452Z,76.30
2018-02-16T18:19:32.011Z,76.20
2018-02-16T18:21:59.579Z,80.47
2018-02-16T18:24:28.118Z,73.40
2018-02-16T18:26:56.427Z,80.47
2018-02-16T18:29:23.990Z,70.97
2018-02-16T18:31:51.607Z,74.90
2018-02-16T18:34:19.900Z,74.57
2018-02-16T18:36:48.203Z,74.00
2018-02-16T18:39:15.786Z,85.33
2018-02-16T18:41:44.299Z,76.57
2018-02-16T18:44:12.605Z,80.60
2018-02-16T18:46:40.190Z,77.13
2018-02-16T18:49:07.800Z,78.77
2018-02-16T18:51:35.363Z,88.23
2018-02-16T18:54:02.936Z,80.10
2018-02-16T18:56:30.498Z,79.77
2018-02-16T18:58:58.917Z,77.30
2018-02-16T19:01:26.507Z,80.07
2018-02-16T19:03:54.038Z,87.47
2018-02-16T19:06:21.641Z,81.70
2018-02-16T19:08:49.967Z,91.53
2018-02-16T19:11:17.491Z,81.67
2018-02-16T19:13:45.806Z,80.43
2018-02-16T19:16:13.435Z,79.10
2018-02-16T19:18:41.058Z,74.23
2018-02-16T19:21:09.377Z,89.90
2018-02-16T19:23:36.980Z,82.10
2018-02-16T19:26:04.663Z,76.07
2018-02-16T19:28:32.213Z,77.83
2018-02-16T19:30:59.775Z,74.00
2018-02-16T19:33:27.352Z,82.70
2018-02-16T19:35:55.172Z,80.13
2018-02-16T19:38:22.931Z,82.90
2018-02-16T19:40:51.023Z,72.90
2018-02-16T19:43:18.607Z,76.57
2018-02-16T19:45:46.156Z,77.13
2018-02-16T19:48:14.104Z,76.50
2018-02-16T19:50:42.294Z,75.97
2018-02-16T19:53:10.406Z,73.20
2018-02-16T19:55:39.036Z,83.73
2018-02-16T19:58:06.667Z,75.83
2018-02-16T20:00:34.736Z,82.87
2018-02-16T20:03:03.065Z,76.03
2018-02-16T20:05:31.226Z,77.40
2018-02-16T20:08:00.394Z,82.03
2018-02-16T20:10:27.990Z,85.50
2018-02-16T20:12:55.976Z,72.43
2018-02-16T20:15:23.548Z,79.50
2018-02-16T20:17:51.982Z,76.23
2018-02-16T20:20:19.956Z,75.30
2018-02-16T20:22:47.576Z,83.60
2018-02-16T20:25:16.516Z,81.93
2018-02-16T20:27:44.143Z,83.77
2018-02-16T20:30:12.522Z,83.07
2018-02-16T20:32:40.127Z,81.37
2018-02-16T20:35:08.316Z,86.90
2018-02-16T20:37:37.566Z,79.30
2018-02-16T20:40:11.745Z,91.20
2018-02-16T20:42:39.663Z,77.00
2018-02-16T20:45:07.304Z,80.23
2018-02-16T20:47:35.782Z,80.90
2018-02-16T20:50:05.584Z,84.97
2018-02-16T20:52:36.327Z,80.13
2018-02-16T20:55:04.743Z,80.93
2018-02-16T20:57:32.387Z,88.07
2018-02-16T21:00:00.490Z,83.47
2018-02-16T21:02:28.036Z,81.43
2018-02-16T21:04:55.674Z,81.43
2018-02-16T21:07:25.074Z,86.37
2018-02-16T21:09:52.691Z,93.47
2018-02-16T21:12:20.290Z,92.83
2018-02-16T21:14:49.436Z,84.67
2018-02-16T21:17:17.019Z,93.83
2018-02-16T21:19:44.668Z,100.40
2018-02-16T21:22:12.286Z,85.03
2018-02-16T21:24:39.848Z,96.33
2018-02-16T21:27:07.463Z,89.17
2018-02-16T21:29:35.596Z,83.90
2018-02-16T21:32:03.139Z,91.47
2018-02-16T21:34:31.755Z,81.40
2018-02-16T21:36:59.419Z,86.20
2018-02-16T21:39:27.057Z,82.50
2018-02-16T21:41:54.635Z,83.50
2018-02-16T21:44:22.302Z,79.20
2018-02-16T21:46:49.885Z,93.10
2018-02-16T21:49:17.527Z,82.33
2018-02-16T21:51:45.184Z,86.17
2018-02-16T21:54:12.780Z,82.33
2018-02-16T21:56:40.364Z,83.83
2018-02-16T21:59:07.923Z,76.40
2018-02-16T22:01:36.344Z,80.50
2018-02-16T22:04:03.977Z,75.70
2018-02-16T22:06:31.549Z,77.57
2018-02-16T22:08:59.138Z,80.60
2018-02-16T22:11:26.696Z,78.10
2018-02-16T22:13:54.227Z,82.43
2018-02-16T22:16:21.852Z,102.60
2018-02-16T22:18:50.184Z,105.07
2018-02-16T22:21:17.849Z,151.57
2018-02-16T22:23:46.051Z,159.77
2018-02-16T22:26:14.119Z,117.83
2018-02-16T22:28:41.716Z,130.83
2018-02-16T22:31:10.740Z,124.03
2018-02-16T22:33:38.335Z,131.13
2018-02-16T22:36:05.897Z,102.20
2018-02-16T22:38:33.422Z,94.90
2018-02-16T22:41:01.021Z,87.53
2018-02-16T22:43:28.668Z,87.07
2018-02-16T22:45:56.236Z,82.60
2018-02-16T22:48:23.861Z,84.50
2018-02-16T22:50:51.458Z,76.80
2018-02-16T22:53:19.000Z,76.57
2018-02-16T22:55:46.784Z,79.80
2018-02-16T22:58:14.391Z,81.77
2018-02-16T23:00:42.100Z,72.50
2018-02-16T23:03:09.701Z,75.17
2018-02-16T23:05:38.029Z,82.07
2018-02-16T23:08:05.630Z,78.93
2018-02-16T23:10:34.257Z,76.77
2018-02-16T23:13:01.887Z,79.20
2018-02-16T23:15:30.200Z,81.20
2018-02-16T23:17:57.727Z,82.37
2018-02-16T23:20:25.300Z,77.07
2018-02-16T23:22:52.864Z,82.10
2018-02-16T23:25:20.476Z,70.97
2018-02-16T23:27:48.633Z,75.40
2018-02-16T23:30:16.170Z,75.90
2018-02-16T23:32:43.737Z,74.23
2018-02-16T23:35:11.263Z,73.03
2018-02-16T23:37:38.856Z,80.83
2018-02-16T23:40:06.485Z,76.00
2018-02-16T23:42:35.022Z,76.30
2018-02-16T23:45:02.564Z,89.80
2018-02-16T23:47:30.196Z,86.93
2018-02-16T23:49:57.739Z,93.00
2018-02-16T23:52:25.272Z,98.47
2018-02-16T23:54:52.843Z,91.33
2018-02-16T23:57:21.317Z,87.27
2018-02-16T23:59:48.908Z,83.40
